Time,TemperatureF,DewpointF,PressureIn,WindDirection,WindDirectionDegrees,WindSpeedMPH,WindSpeedGustMPH,Humidity,HourlyPrecipIn,Conditions,Clouds,dailyrainin,SoftwareType,DateUTC
2013-07-03 00:03:00,59.9,59.3,30.15,WNW,292,0.0,-999.0,98,-99.99,,,0.00,Acu-Link.com,2013-07-03 04:03:00,
2013-07-03 00:19:00,59.7,59.1,30.15,SE,135,0.0,-999.0,98,-99.99,,,0.00,Acu-Link.com,2013-07-03 04:19:00,
2013-07-03 00:34:00,59.5,58.9,30.15,NNE,22,0.0,-999.0,98,-99.99,,,0.00,Acu-Link.com,2013-07-03 04:34:00,
2013-07-03 00:49:00,59.5,58.9,30.14,ENE,67,0.0,-999.0,98,-99.99,,,0.00,Acu-Link.com,2013-07-03 04:49:00,
2013-07-03 01:04:00,59.5,58.9,30.14,NNW,337,0.0,-999.0,98,-99.99,,,0.00,Acu-Link.com,2013-07-03 05:04:00,
2013-07-03 01:20:00,59.5,58.9,30.13,ESE,112,0.0,-999.0,98,-99.99,,,0.00,Acu-Link.com,2013-07-03 05:20:00,
2013-07-03 01:35:00,59.4,58.8,30.13,SSW,202,0.0,-999.0,98,-99.99,,,0.00,Acu-Link.com,2013-07-03 05:35:00,
2013-07-03 02:06:00,59.4,58.8,30.11,SW,225,0.0,-999.0,98,-99.99,,,0.01,Acu-Link.com,2013-07-03 06:06:00,
2013-07-03 02:21:00,59.4,58.8,30.12,West,270,0.0,-999.0,98,-99.99,,,0.01,Acu-Link.com,2013-07-03 06:21:00,
2013-07-03 02:36:00,59.4,58.8,30.12,West,270,0.0,-999.0,98,-99.99,,,0.01,Acu-Link.com,2013-07-03 06:36:00,
2013-07-03 03:07:00,59.4,58.8,30.11,North,0,0.0,-999.0,98,-99.99,,,0.01,Acu-Link.com,2013-07-03 07:07:00,
2013-07-03 03:22:00,59.4,58.8,30.10,NW,315,0.0,-999.0,98,-99.99,,,0.01,Acu-Link.com,2013-07-03 07:22:00,
2013-07-03 03:52:00,59.4,58.8,30.08,NNW,337,0.0,-999.0,98,-99.99,,,0.01,Acu-Link.com,2013-07-03 07:52:00,
2013-07-03 04:08:00,59.4,58.8,30.08,SW,225,0.0,-999.0,98,-99.99,,,0.01,Acu-Link.com,2013-07-03 08:08:00,
2013-07-03 04:23:00,59.4,58.8,30.09,NNE,22,0.0,-999.0,98,-99.99,,,0.01,Acu-Link.com,2013-07-03 08:23:00,
2013-07-03 04:54:00,59.4,58.8,30.10,WNW,292,0.0,-999.0,98,-99.99,,,0.01,Acu-Link.com,2013-07-03 08:54:00,
2013-07-03 05:09:00,59.4,58.8,30.10,WSW,247,0.0,-999.0,98,-99.99,,,0.01,Acu-Link.com,2013-07-03 09:09:00,
2013-07-03 05:24:00,59.4,58.8,30.11,NNW,337,0.0,-999.0,98,-99.99,,,0.01,Acu-Link.com,2013-07-03 09:24:00,
2013-07-03 05:39:00,59.4,58.8,30.11,NNW,337,0.0,-999.0,98,-99.99,,,0.01,Acu-Link.com,2013-07-03 09:39:00,
2013-07-03 05:54:00,59.4,58.8,30.12,NNW,337,0.0,-999.0,98,-99.99,,,0.01,Acu-Link.com,2013-07-03 09:54:00,
2013-07-03 06:09:00,59.7,59.1,30.12,NE,45,0.0,-999.0,98,-99.99,,,0.01,Acu-Link.com,2013-07-03 10:09:00,
2013-07-03 06:24:00,59.7,59.1,30.12,NE,45,0.0,-999.0,98,-99.99,,,0.01,Acu-Link.com,2013-07-03 10:24:00,
2013-07-03 06:40:00,59.9,59.3,30.12,NE,45,0.0,-999.0,98,-99.99,,,0.01,Acu-Link.com,2013-07-03 10:40:00,
2013-07-03 06:55:00,60.1,59.5,30.12,NE,45,0.0,-999.0,98,-99.99,,,0.01,Acu-Link.com,2013-07-03 10:55:00,
2013-07-03 07:25:00,61.2,60.6,30.12,ENE,67,0.0,-999.0,98,-99.99,,,0.01,Acu-Link.com,2013-07-03 11:25:00,
2013-07-03 07:40:00,61.7,61.1,30.13,ESE,112,0.0,-999.0,98,-99.99,,,0.01,Acu-Link.com,2013-07-03 11:40:00,
2013-07-03 08:11:00,62.4,61.8,30.13,ESE,112,0.0,-999.0,98,-99.99,,,0.01,Acu-Link.com,2013-07-03 12:11:00,
2013-07-03 08:41:00,64.4,63.8,30.13,South,180,2.7,-999.0,98,-99.99,,,0.01,Acu-Link.com,2013-07-03 12:41:00,
2013-07-03 09:27:00,66.4,65.2,30.13,WNW,292,0.0,-999.0,96,-99.99,,,0.01,Acu-Link.com,2013-07-03 13:27:00,
2013-07-03 09:57:00,69.8,69.2,30.14,WNW,292,0.0,-999.0,98,-99.99,,,0.01,Acu-Link.com,2013-07-03 13:57:00,
2013-07-03 10:12:00,70.9,70.3,30.12,SW,225,1.1,-999.0,98,-99.99,,,0.01,Acu-Link.com,2013-07-03 14:12:00,
2013-07-03 10:28:00,72.0,71.4,30.13,South,180,1.1,-999.0,98,-99.99,,,0.01,Acu-Link.com,2013-07-03 14:28:00,
2013-07-03 10:43:00,72.5,71.9,30.12,NW,315,0.0,-999.0,98,-99.99,,,0.01,Acu-Link.com,2013-07-03 14:43:00,
2013-07-03 10:58:00,73.9,73.3,30.13,WNW,292,0.0,-999.0,98,-99.99,,,0.01,Acu-Link.com,2013-07-03 14:58:00,
2013-07-03 11:13:00,74.5,73.9,30.12,NW,315,0.0,-999.0,98,-99.99,,,0.01,Acu-Link.com,2013-07-03 15:13:00,
2013-07-03 11:28:00,73.4,72.8,30.11,North,0,0.0,-999.0,98,-99.99,,,0.01,Acu-Link.com,2013-07-03 15:28:00,
2013-07-03 11:44:00,74.5,73.9,30.11,NW,315,1.1,-999.0,98,-99.99,,,0.01,Acu-Link.com,2013-07-03 15:44:00,
2013-07-03 11:59:00,73.6,73.0,30.11,NE,45,0.0,-999.0,98,-99.99,,,0.01,Acu-Link.com,2013-07-03 15:59:00,
2013-07-03 12:14:00,75.2,74.6,30.11,NNW,337,0.0,-999.0,98,-99.99,,,0.01,Acu-Link.com,2013-07-03 16:14:00,
2013-07-03 13:00:00,80.2,78.3,30.09,SSW,202,1.7,-999.0,94,-99.99,,,0.01,Acu-Link.com,2013-07-03 17:00:00,
2013-07-03 13:15:00,79.7,78.8,30.10,ESE,112,0.0,-999.0,97,-99.99,,,0.01,Acu-Link.com,2013-07-03 17:15:00,
2013-07-03 13:31:00,79.2,77.3,30.08,WSW,247,1.1,-999.0,94,-99.99,,,0.01,Acu-Link.com,2013-07-03 17:31:00,
2013-07-03 14:01:00,80.1,77.9,30.07,NW,315,0.0,-999.0,93,-99.99,,,0.01,Acu-Link.com,2013-07-03 18:01:00,
2013-07-03 14:17:00,80.8,78.6,30.07,North,0,0.0,-999.0,93,-99.99,,,0.01,Acu-Link.com,2013-07-03 18:17:00,
2013-07-03 14:47:00,82.2,79.6,30.04,NW,315,0.0,-999.0,92,-99.99,,,0.01,Acu-Link.com,2013-07-03 18:47:00,
2013-07-03 15:02:00,82.9,78.6,30.04,WNW,292,0.0,-999.0,87,-99.99,,,0.01,Acu-Link.com,2013-07-03 19:02:00,
2013-07-03 15:18:00,83.1,78.8,30.03,NNE,22,0.0,-999.0,87,-99.99,,,0.01,Acu-Link.com,2013-07-03 19:18:00,
2013-07-03 15:33:00,83.1,78.5,30.03,West,270,1.1,-999.0,86,-99.99,,,0.01,Acu-Link.com,2013-07-03 19:33:00,
2013-07-03 15:48:00,83.1,75.9,30.03,SW,225,1.7,-999.0,79,-99.99,,,0.01,Acu-Link.com,2013-07-03 19:48:00,
2013-07-03 16:03:00,83.1,76.3,30.04,NW,315,1.7,-999.0,80,-99.99,,,0.01,Acu-Link.com,2013-07-03 20:03:00,
2013-07-03 16:18:00,82.0,76.3,30.02,SSW,202,0.0,-999.0,83,-99.99,,,0.01,Acu-Link.com,2013-07-03 20:18:00,
2013-07-03 16:49:00,82.6,75.0,30.02,SE,135,1.1,-999.0,78,-99.99,,,0.01,Acu-Link.com,2013-07-03 20:49:00,
2013-07-03 17:04:00,82.4,76.0,30.02,SSW,202,0.0,-999.0,81,-99.99,,,0.01,Acu-Link.com,2013-07-03 21:04:00,
2013-07-03 17:19:00,83.1,76.6,30.01,SSE,157,0.0,-999.0,81,-99.99,,,0.01,Acu-Link.com,2013-07-03 21:19:00,
2013-07-03 17:34:00,83.1,76.3,30.00,NW,315,1.1,-999.0,80,-99.99,,,0.01,Acu-Link.com,2013-07-03 21:34:00,
2013-07-03 17:50:00,81.5,77.2,30.01,NW,315,0.0,-999.0,87,-99.99,,,0.01,Acu-Link.com,2013-07-03 21:50:00,
2013-07-03 18:05:00,79.9,77.7,30.01,NW,315,0.0,-999.0,93,-99.99,,,0.01,Acu-Link.com,2013-07-03 22:05:00,
2013-07-03 18:20:00,80.4,77.5,30.01,NW,315,0.0,-999.0,91,-99.99,,,0.01,Acu-Link.com,2013-07-03 22:20:00,
2013-07-03 18:36:00,79.9,77.4,30.02,WNW,292,1.7,-999.0,92,-99.99,,,0.01,Acu-Link.com,2013-07-03 22:36:00,
2013-07-03 19:21:00,76.6,75.7,30.03,NW,315,0.0,-999.0,97,-99.99,,,0.01,Acu-Link.com,2013-07-03 23:21:00,
2013-07-03 19:37:00,76.3,75.7,30.04,NW,315,0.0,-999.0,98,-99.99,,,0.01,Acu-Link.com,2013-07-03 23:37:00,
2013-07-03 19:52:00,76.3,75.7,30.04,South,180,0.0,-999.0,98,-99.99,,,0.01,Acu-Link.com,2013-07-03 23:52:00,
2013-07-03 20:22:00,75.6,75.0,30.07,NW,315,0.0,-999.0,98,-99.99,,,0.01,Acu-Link.com,2013-07-04 00:22:00,
2013-07-03 20:37:00,74.8,74.2,30.06,ENE,67,0.0,-999.0,98,-99.99,,,0.01,Acu-Link.com,2013-07-04 00:37:00,
2013-07-03 20:53:00,74.5,73.9,30.08,SSE,157,0.0,-999.0,98,-99.99,,,0.01,Acu-Link.com,2013-07-04 00:53:00,
2013-07-03 21:08:00,73.9,73.3,30.07,NW,315,0.0,-999.0,98,-99.99,,,0.01,Acu-Link.com,2013-07-04 01:08:00,
2013-07-03 21:23:00,73.2,72.6,30.07,North,0,0.0,-999.0,98,-99.99,,,0.01,Acu-Link.com,2013-07-04 01:23:00,
2013-07-03 21:39:00,72.7,72.1,30.08,NW,315,0.0,-999.0,98,-99.99,,,0.01,Acu-Link.com,2013-07-04 01:39:00,
2013-07-03 22:09:00,72.0,71.4,30.09,North,0,0.0,-999.0,98,-99.99,,,0.01,Acu-Link.com,2013-07-04 02:09:00,
2013-07-03 22:24:00,71.6,71.0,30.10,NW,315,0.0,-999.0,98,-99.99,,,0.01,Acu-Link.com,2013-07-04 02:24:00,
2013-07-03 22:39:00,71.2,70.6,30.09,NNW,337,0.0,-999.0,98,-99.99,,,0.01,Acu-Link.com,2013-07-04 02:39:00,
2013-07-03 22:55:00,70.9,70.3,30.09,NW,315,0.0,-999.0,98,-99.99,,,0.01,Acu-Link.com,2013-07-04 02:55:00,
2013-07-03 23:10:00,70.7,70.1,30.09,NW,315,0.0,-999.0,98,-99.99,,,0.01,Acu-Link.com,2013-07-04 03:10:00,
2013-07-03 23:40:00,70.5,69.9,30.09,West,270,0.0,-999.0,98,-99.99,,,0.01,Acu-Link.com,2013-07-04 03:40:00,
2013-07-03 23:55:00,70.5,69.9,30.09,WNW,292,0.0,-999.0,98,-99.99,,,0.01,Acu-Link.com,2013-07-04 03:55:00,